sensor_id;sensor_type;location;lat;lon;timestamp;pressure;altitude;pressure_sealevel;temperature;humidity
84647;BME280;74876;52.404;16.896;2024-03-08T00:05:09;101485.0;;;1.22;74.55
84647;BME280;74876;52.404;16.896;2024-03-08T00:20:09;101480.0;;;1.08;75.17
84647;BME280;74876;52.404;16.896;2024-03-08T00:35:09;101486.0;;;1.01;75.22
84647;BME280;74876;52.404;16.896;2024-03-08T00:50:10;101476.0;;;0.87;76.3
84647;BME280;74876;52.404;16.896;2024-03-08T01:05:09;101467.0;;;0.77;76.62
84647;BME280;74876;52.404;16.896;2024-03-08T01:20:10;101458.0;;;0.67;77.56
84647;BME280;74876;52.404;16.896;2024-03-08T01:35:10;101454.0;;;0.62;77.66
84647;BME280;74876;52.404;16.896;2024-03-08T01:50:10;101444.0;;;0.56;78.32
84647;BME280;74876;52.404;16.896;2024-03-08T02:10:09;101432.0;;;0.45;78.74
84647;BME280;74876;52.404;16.896;2024-03-08T02:25:09;101414.0;;;0.39;79.05
84647;BME280;74876;52.404;16.896;2024-03-08T02:40:10;101411.0;;;0.31;79.7
84647;BME280;74876;52.404;16.896;2024-03-08T02:55:09;101408.0;;;0.24;79.87
84647;BME280;74876;52.404;16.896;2024-03-08T03:10:09;101394.0;;;0.19;79.7
84647;BME280;74876;52.404;16.896;2024-03-08T03:25:09;101399.0;;;0.12;79.89
84647;BME280;74876;52.404;16.896;2024-03-08T03:40:09;101409.0;;;0.08;80.09
84647;BME280;74876;52.404;16.896;2024-03-08T03:55:09;101395.0;;;0.009999999;80.09
84647;BME280;74876;52.404;16.896;2024-03-08T04:10:09;101389.0;;;-0.05;80.27
84647;BME280;74876;52.404;16.896;2024-03-08T04:25:09;101384.0;;;-0.09;80.56
84647;BME280;74876;52.404;16.896;2024-03-08T04:40:10;101378.0;;;-0.18;80.88
84647;BME280;74876;52.404;16.896;2024-03-08T04:55:09;101372.0;;;-0.32;80.81
84647;BME280;74876;52.404;16.896;2024-03-08T05:10:10;101377.0;;;-0.42;81.21
84647;BME280;74876;52.404;16.896;2024-03-08T05:25:09;101375.0;;;-0.48;81.87
84647;BME280;74876;52.404;16.896;2024-03-08T05:40:10;101380.0;;;-0.37;82.07
84647;BME280;74876;52.404;16.896;2024-03-08T05:55:10;101378.0;;;-0.4;81.96
84647;BME280;74876;52.404;16.896;2024-03-08T06:10:10;101386.0;;;-0.21;82.25
84647;BME280;74876;52.404;16.896;2024-03-08T06:25:10;101392.0;;;0.06;81.77
84647;BME280;74876;52.404;16.896;2024-03-08T06:45:09;101382.0;;;0.5;80.35
84647;BME280;74876;52.404;16.896;2024-03-08T07:00:09;101388.0;;;0.95;79.01
84647;BME280;74876;52.404;16.896;2024-03-08T07:25:09;101374.0;;;1.71;76.43
84647;BME280;74876;52.404;16.896;2024-03-08T07:40:09;101380.0;;;2.3;73.64
84647;BME280;74876;52.404;16.896;2024-03-08T07:55:09;101368.0;;;2.68;71.62
84647;BME280;74876;52.404;16.896;2024-03-08T08:10:09;101364.0;;;3.16;69.85
84647;BME280;74876;52.404;16.896;2024-03-08T08:25:09;101355.0;;;3.68;68.1
84647;BME280;74876;52.404;16.896;2024-03-08T08:40:09;101357.0;;;4.27;65.42
84647;BME280;74876;52.404;16.896;2024-03-08T08:55:09;101351.0;;;4.63;62.49
84647;BME280;74876;52.404;16.896;2024-03-08T09:10:10;101337.0;;;4.88;60.97
84647;BME280;74876;52.404;16.896;2024-03-08T09:25:09;101319.0;;;5.11;61.02
84647;BME280;74876;52.404;16.896;2024-03-08T09:40:09;101312.0;;;5.31;58.32
84647;BME280;74876;52.404;16.896;2024-03-08T09:55:09;101303.0;;;5.37;58.12
84647;BME280;74876;52.404;16.896;2024-03-08T10:10:09;101286.0;;;5.66;57.58
84647;BME280;74876;52.404;16.896;2024-03-08T10:25:10;101276.0;;;6.1;55.23
84647;BME280;74876;52.404;16.896;2024-03-08T10:40:10;101275.0;;;7.77;51.46
84647;BME280;74876;52.404;16.896;2024-03-08T10:55:09;101263.0;;;10.5;44.54
84647;BME280;74876;52.404;16.896;2024-03-08T11:10:10;101245.0;;;12.77;39.7
84647;BME280;74876;52.404;16.896;2024-03-08T11:25:09;101230.0;;;14.62;36.19
84647;BME280;74876;52.404;16.896;2024-03-08T11:40:10;101211.0;;;16.49;32.81
84647;BME280;74876;52.404;16.896;2024-03-08T11:55:09;101201.0;;;17.37;31.13
84647;BME280;74876;52.404;16.896;2024-03-08T12:10:10;101195.0;;;18.53;29.57
84647;BME280;74876;52.404;16.896;2024-03-08T12:35:09;101162.0;;;18.62;28.04
84647;BME280;74876;52.404;16.896;2024-03-08T12:50:09;101146.0;;;19.02;26.87
84647;BME280;74876;52.404;16.896;2024-03-08T13:05:10;101131.0;;;19.67;26.8
84647;BME280;74876;52.404;16.896;2024-03-08T13:20:10;101106.0;;;19.95;26.82
84647;BME280;74876;52.404;16.896;2024-03-08T13:35:10;101089.0;;;20.24;26.01
84647;BME280;74876;52.404;16.896;2024-03-08T13:50:10;101073.0;;;19.16;27.39
84647;BME280;74876;52.404;16.896;2024-03-08T14:05:10;101052.0;;;19.16;27.76
84647;BME280;74876;52.404;16.896;2024-03-08T14:20:10;101038.0;;;19.48;26.63
84647;BME280;74876;52.404;16.896;2024-03-08T14:35:09;101033.0;;;19.58;26.65
84647;BME280;74876;52.404;16.896;2024-03-08T14:50:09;101017.0;;;19.92;26.04
84647;BME280;74876;52.404;16.896;2024-03-08T15:05:09;101008.0;;;18.73;27.01
84647;BME280;74876;52.404;16.896;2024-03-08T15:20:09;100997.0;;;15.69;30.06
84647;BME280;74876;52.404;16.896;2024-03-08T17:10:09;100946.0;;;7.24;50.16
84647;BME280;74876;52.404;16.896;2024-03-08T17:25:09;100947.0;;;7.1;51.31
84647;BME280;74876;52.404;16.896;2024-03-08T17:40:10;100943.0;;;6.49;52.99
84647;BME280;74876;52.404;16.896;2024-03-08T17:55:10;100941.0;;;6.14;54.45
84647;BME280;74876;52.404;16.896;2024-03-08T18:10:09;100936.0;;;5.83;55.34
84647;BME280;74876;52.404;16.896;2024-03-08T18:25:10;100934.0;;;5.62;56.24
84647;BME280;74876;52.404;16.896;2024-03-08T18:40:10;100925.0;;;5.44;56.39
84647;BME280;74876;52.404;16.896;2024-03-08T18:55:09;100921.0;;;5.27;56.8
84647;BME280;74876;52.404;16.896;2024-03-08T19:10:10;100911.0;;;5.12;57.38
84647;BME280;74876;52.404;16.896;2024-03-08T19:25:10;100915.0;;;4.93;57.56
84647;BME280;74876;52.404;16.896;2024-03-08T19:40:10;100907.0;;;4.78;58.55
84647;BME280;74876;52.404;16.896;2024-03-08T19:55:10;100900.0;;;4.53;59.23
84647;BME280;74876;52.404;16.896;2024-03-08T20:10:10;100897.0;;;4.29;59.8
84647;BME280;74876;52.404;16.896;2024-03-08T20:25:10;100885.0;;;4.15;60.32
84647;BME280;74876;52.404;16.896;2024-03-08T20:40:09;100871.0;;;4.03;60.99
84647;BME280;74876;52.404;16.896;2024-03-08T20:55:10;100869.0;;;3.97;61.52
84647;BME280;74876;52.404;16.896;2024-03-08T21:10:10;100858.0;;;3.9;61.57
84647;BME280;74876;52.404;16.896;2024-03-08T21:25:09;100844.0;;;3.79;62.32
84647;BME280;74876;52.404;16.896;2024-03-08T21:40:10;100831.0;;;3.69;63.03
84647;BME280;74876;52.404;16.896;2024-03-08T21:55:09;100833.0;;;3.5;63.77
84647;BME280;74876;52.404;16.896;2024-03-08T22:10:09;100812.0;;;3.33;64.59
84647;BME280;74876;52.404;16.896;2024-03-08T22:25:09;100804.0;;;3.2;65.45
84647;BME280;74876;52.404;16.896;2024-03-08T22:40:09;100791.0;;;3.03;66.17
84647;BME280;74876;52.404;16.896;2024-03-08T22:55:09;100792.0;;;2.94;66.61
84647;BME280;74876;52.404;16.896;2024-03-08T23:10:09;100786.0;;;2.77;66.99
84647;BME280;74876;52.404;16.896;2024-03-08T23:25:09;100775.0;;;2.69;67.31
84647;BME280;74876;52.404;16.896;2024-03-08T23:40:09;100772.0;;;2.57;67.76
84647;BME280;74876;52.404;16.896;2024-03-08T23:55:09;100771.0;;;2.47;68.24
